GW6816 Weather Reports


time (UTC)temp
F
wind
direction
speed
knots
gust
knots
rain 1hr
in
rain 24hr
in
rain mn
in
humidity
%
barometer
mb
20260505032158 56 175 0.0 0.0 0.00 0.00 0.00 80 1007.1
20260505031655 56 175 0.0 0.0 0.00 0.00 0.00 80 1007.2
20260505031155 56 175 0.0 0.0 0.00 0.00 0.00 79 1007.2
20260505030655 56 175 0.0 0.0 0.00 0.00 0.00 80 1007.2
20260505030155 56 175 0.0 0.0 0.00 0.00 0.00 79 1007.1
20260505025655 57 175 0.0 0.0 0.00 0.00 0.00 79 1007.3
20260505025155 57 175 0.0 0.0 0.00 0.00 0.00 78 1007.3
20260505024656 57 175 0.0 0.9 0.00 0.00 0.00 79 1007.3
20260505024156 57 175 0.0 0.9 0.00 0.00 0.00 79 1007.4
20260505023655 57 175 0.0 0.9 0.00 0.00 0.00 78 1007.4
20260505023418 57 175 0.0 0.9 0.00 0.00 0.00 78 1007.6
20260505022655 57 175 0.0 1.7 0.00 0.00 0.00 78 1007.6
20260505022153 57 175 0.9 3.5 0.00 0.00 0.00 78 1007.6
20260505021652 57 175 0.9 3.5 0.00 0.00 0.00 78 1007.7
20260505021147 57 175 0.9 2.6 0.00 0.00 0.00 77 1007.7
20260505020907 57 175 1.7 3.5 0.00 0.00 0.00 77 1007.7
20260505020135 57 175 1.7 3.5 0.00 0.00 0.00 77 1007.7
20260505015632 57 175 1.7 5.2 0.00 0.00 0.00 78 1007.8
20260505015132 57 175 1.7 5.2 0.00 0.00 0.00 78 1007.8
20260505014632 57 159 1.7 4.3 0.00 0.00 0.00 78 1007.9
20260505014132 57 155 1.7 4.3 0.00 0.00 0.00 79 1007.9
20260505013353 56 151 0.9 2.6 0.00 0.00 0.00 80 1007.9
20260505012632 56 151 0.9 4.3 0.00 0.00 0.00 81 1007.9
20260505012131 56 151 1.7 4.3 0.00 0.00 0.00 81 1008.0
20260505011632 55 148 0.9 2.6 0.00 0.00 0.00 82 1008.1
20260505011132 55 141 0.9 3.5 0.00 0.00 0.00 82 1008.1
20260505010633 55 140 0.9 3.5 0.00 0.00 0.00 82 1008.1
20260505010134 55 140 0.9 2.6 0.00 0.00 0.00 81 1008.2
20260505005632 55 140 0.0 2.6 0.00 0.00 0.00 81 1008.2
20260505005132 55 140 0.0 0.0 0.00 0.00 0.00 81 1008.2
20260505004632 55 140 0.0 0.0 0.00 0.00 0.00 80 1008.2
20260505004132 55 140 0.0 0.0 0.00 0.00 0.00 79 1008.3
20260505003632 56 140 0.0 0.0 0.00 0.00 0.00 78 1008.4
20260505003132 56 140 0.0 0.0 0.00 0.00 0.00 78 1008.5
20260505002632 56 140 0.0 0.0 0.00 0.00 0.00 78 1008.5
20260505002133 57 140 0.0 0.0 0.00 0.00 0.00 78 1008.6
20260505001632 57 140 0.0 0.0 0.00 0.00 0.00 78 1008.6
20260505001132 57 140 0.0 0.0 0.00 0.00 0.00 78 1008.7
20260505000851 57 140 0.0 0.0 0.00 0.00 0.00 78 1008.7
20260505000131 57 140 0.0 0.0 0.00 0.00 0.00 78 1008.7
20260504235632 57 140 0.0 0.0 0.00 0.00 0.00 78 1008.8
20260504235132 57 140 0.0 0.0 0.00 0.00 0.00 78 1008.9
20260504234852 57 140 0.0 0.0 0.00 0.00 0.00 77 1008.8
20260504234132 57 140 0.0 0.0 0.00 0.00 0.00 77 1009.0
20260504233632 57 140 0.0 0.0 0.00 0.00 0.00 77 1009.1
20260504233132 58 140 0.0 0.0 0.00 0.00 0.00 76 1009.2
20260504232632 58 140 0.0 0.9 0.00 0.00 0.00 76 1009.3
20260504232133 58 140 0.0 1.7 0.00 0.00 0.00 75 1009.3
20260504231630 58 140 0.0 1.7 0.00 0.00 0.00 75 1009.4
20260504231125 58 140 0.0 0.9 0.00 0.00 0.00 75 1009.4
20260504230619 58 140 0.9 2.6 0.00 0.00 0.00 75 1009.5
20260504230336 57 140 1.7 3.5 0.00 0.00 0.00 76 1009.6
20260504225607 57 140 0.9 3.5 0.00 0.00 0.00 76 1009.6
20260504225108 57 140 0.9 2.6 0.00 0.00 0.00 76 1009.6
20260504224829 57 140 1.7 6.1 0.00 0.00 0.00 76 1009.6
20260504224106 57 140 2.6 6.1 0.00 0.00 0.00 76 1009.6
20260504223605 57 125 1.7 5.2 0.00 0.00 0.00 76 1009.6
20260504223106 57 101 0.9 3.5 0.00 0.00 0.00 76 1009.5
20260504222604 57 101 0.9 3.5 0.00 0.00 0.00 76 1009.4
20260504222104 57 101 0.0 0.0 0.00 0.00 0.00 76 1009.5
20260504221604 57 101 0.0 0.0 0.00 0.00 0.00 75 1009.5
20260504221104 57 101 0.0 0.0 0.00 0.00 0.00 75 1009.5
20260504220605 58 101 0.0 0.0 0.00 0.00 0.00 75 1009.5
20260504220104 58 101 0.0 0.0 0.00 0.00 0.00 74 1009.5
20260504215605 58 101 0.0 0.0 0.00 0.00 0.00 74 1009.6
20260504214607 58 101 0.9 1.7 0.00 0.00 0.00 74 1009.6
20260504214324 58 101 0.0 1.7 0.00 0.00 0.00 73 1009.6
20260504213605 58 101 0.0 1.7 0.00 0.00 0.00 73 1009.5
20260504213104 59 101 0.0 1.7 0.00 0.00 0.00 72 1009.6
20260504212834 59 101 0.0 1.7 0.00 0.00 0.00 71 1009.6
20260504212053 59 101 0.0 0.0 0.00 0.00 0.00 71 1009.7
20260504211549 60 101 0.0 0.0 0.00 0.00 0.00 71 1009.7
20260504211313 60 101 0.0 0.0 0.00 0.00 0.00 70 1009.9
20260504210810 60 101 0.0 0.9 0.00 0.00 0.00 69 1009.9
20260504210048 60 101 0.0 0.9 0.00 0.00 0.00 69 1009.9
20260504205557 60 101 0.0 0.9 0.00 0.00 0.00 69 1009.9
20260504205044 60 101 0.0 0.0 0.00 0.00 0.00 67 1010.0
20260504204542 60 101 0.0 0.0 0.00 0.00 0.00 67 1010.0
20260504204042 61 101 0.0 0.0 0.00 0.00 0.00 66 1010.0
20260504203542 61 101 0.0 0.9 0.00 0.00 0.00 65 1010.0
20260504203041 61 101 0.0 0.9 0.00 0.00 0.00 66 1010.0
20260504202542 61 101 0.0 0.0 0.00 0.00 0.00 67 1010.1
20260504202041 61 101 0.0 0.9 0.00 0.00 0.00 65 1010.1
20260504201542 61 101 0.0 0.9 0.00 0.00 0.00 65 1010.1
20260504201040 61 101 0.0 0.9 0.00 0.00 0.00 67 1010.1
20260504200538 61 101 0.9 1.7 0.00 0.00 0.00 65 1010.1
20260504200036 61 101 0.9 1.7 0.00 0.00 0.00 65 1010.1
20260504195535 61 101 0.9 1.7 0.00 0.00 0.00 67 1010.0
20260504195035 61 101 0.0 1.7 0.00 0.00 0.00 66 1010.0
20260504194534 62 101 0.9 1.7 0.00 0.00 0.00 66 1009.9
20260504194033 62 101 0.9 1.7 0.00 0.00 0.00 65 1009.9
20260504193530 62 101 0.0 1.7 0.00 0.00 0.00 65 1009.8
20260504193023 63 101 0.0 1.7 0.00 0.00 0.00 64 1009.8
20260504192518 63 101 0.0 0.0 0.00 0.00 0.00 63 1009.9
20260504192012 64 101 0.0 0.0 0.00 0.00 0.00 61 1009.8
20260504191505 64 101 0.0 0.0 0.00 0.00 0.00 59 1009.7
20260504191000 64 101 0.0 0.0 0.00 0.00 0.00 60 1009.7
20260504190456 65 101 0.0 0.9 0.00 0.00 0.00 59 1009.6
20260504185954 65 101 0.0 0.9 0.00 0.00 0.00 60 1009.6
20260504185454 65 101 0.0 1.7 0.00 0.00 0.00 58 1009.5
20260504184954 66 101 0.0 1.7 0.00 0.00 0.00 57 1009.5
20260504184454 66 101 0.9 1.7 0.00 0.00 0.00 56 1009.5
20260504183953 66 101 0.9 1.7 0.00 0.00 0.00 56 1009.5
20260504183454 67 101 0.0 0.9 0.00 0.00 0.00 58 1009.5
20260504183215 67 101 0.0 0.9 0.00 0.00 0.00 54 1009.4
20260504181950 67 101 0.0 1.7 0.00 0.00 0.00 53 1009.4
20260504181450 67 101 0.0 0.9 0.00 0.00 0.00 54 1009.4
20260504180949 67 101 0.9 1.7 0.00 0.00 0.00 54 1009.4
20260504180708 68 101 0.9 1.7 0.00 0.00 0.00 54 1009.4
20260504175946 68 101 0.0 1.7 0.00 0.00 0.00 54 1009.3
20260504175446 68 101 0.0 0.0 0.00 0.00 0.00 54 1009.3
20260504174946 69 101 0.0 0.0 0.00 0.00 0.00 53 1009.4
20260504174445 69 101 0.0 0.9 0.00 0.00 0.00 53 1009.4
20260504173445 69 101 0.9 1.7 0.00 0.00 0.00 52 1009.3
20260504172945 70 101 0.0 0.9 0.00 0.00 0.00 53 1009.4
20260504172445 70 101 0.0 0.9 0.00 0.00 0.00 53 1009.4
20260504171946 70 101 0.9 1.7 0.00 0.00 0.00 53 1009.5
20260504171446 70 101 0.9 3.5 0.00 0.00 0.00 52 1009.5
20260504170945 70 101 1.7 3.5 0.00 0.00 0.00 50 1009.5
20260504170442 70 100 1.7 5.2 0.00 0.00 0.00 50 1009.5
20260504160432 72 101 2.6 7.0 0.00 0.00 0.00 48 1009.7
20260504150931 72 63 2.6 7.0 0.00 0.00 0.00 48 1009.9
20260504150433 73 78 3.5 7.0 0.00 0.00 0.00 45 1009.9
20260504140932 73 83 1.7 5.2 0.00 0.00 0.00 46 1010.2
20260504140433 73 98 2.6 5.2 0.00 0.00 0.00 44 1010.2
20260504130410 72 69 1.7 4.3 0.00 0.00 0.00 45 1010.9
20260504130135 72 65 1.7 4.3 0.00 0.00 0.00 46 1011.0
20260504120126 71 49 2.6 4.3 0.00 0.00 0.00 46 1011.4
20260504110349 69 12 2.6 7.0 0.00 0.00 0.00 48 1011.9
20260504100341 69 5 1.7 4.3 0.00 0.00 0.00 48 1012.5
20260504100112 69 344 1.7 7.0 0.00 0.00 0.00 47 1012.6
20260504081837 66 350 2.6 7.0 0.00 0.00 0.00 51 1012.6
20260504081336 66 0 3.5 7.0 0.00 0.00 0.00 53 1012.6
20260504081059 65 25 2.6 7.0 0.00 0.00 0.00 53 1012.6
20260504080334 65 12 1.7 6.1 0.00 0.00 0.00 56 1012.6
20260504070308 62 22 2.6 6.1 0.00 0.00 0.00 57 1012.2
20260504050304 52 167 0.0 0.0 0.00 0.00 0.00 76 1011.9
20260504045804 52 167 0.0 0.0 0.00 0.00 0.00 76 1011.9
20260504045529 52 166 0.0 0.0 0.00 0.00 0.00 75 1011.9
20260504044804 51 167 0.9 3.5 0.00 0.00 0.00 75 1011.9
20260504044304 51 167 0.9 3.5 0.00 0.00 0.00 75 1011.8
20260504043804 51 166 0.9 3.5 0.00 0.00 0.00 76 1011.8
20260504043304 51 166 0.0 2.6 0.00 0.00 0.00 76 1011.8
20260504042803 51 167 0.9 3.5 0.00 0.00 0.00 76 1011.9
20260504042304 51 167 1.7 3.5 0.00 0.00 0.00 77 1011.8
20260504041802 50 166 0.9 3.5 0.00 0.00 0.00 77 1011.7
20260504041300 50 167 0.0 0.9 0.00 0.00 0.00 76 1011.5
20260504040757 50 167 0.0 0.9 0.00 0.00 0.00 76 1011.4
20260504040516 50 166 0.0 0.9 0.00 0.00 0.00 76 1011.3
20260504035757 50 166 0.0 0.9 0.00 0.00 0.00 75 1011.3
20260504035255 50 166 0.0 3.5 0.00 0.00 0.00 75 1011.2
20260504035015 51 166 0.0 3.5 0.00 0.00 0.00 74 1011.1
20260504034256 51 167 0.0 2.6 0.00 0.00 0.00 74 1011.1
20260504033756 51 167 0.0 2.6 0.00 0.00 0.00 73 1011.1
20260504033255 51 166 0.9 3.5 0.00 0.00 0.00 72 1011.1
20260504032756 52 166 0.9 3.5 0.00 0.00 0.00 72 1011.3